Time;durP1;ratioP1;P1;durP2;ratioP2;P2;SDS_P1;SDS_P2;PMS_P1;PMS_P2;Temp;Humidity;BMP_temperature;BMP_pressure;BME280_temperature;BME280_humidity;BME280_pressure;Samples;Min_cycle;Max_cycle;Signal;HPM_P1;HPM_P2
2020/12/03 00:01:19;;;;;;;52.67;23.05;;;4.90;99.90;;;;;;5067083;28;20132;-70
2020/12/03 00:03:50;;;;;;;48.25;23.25;;;4.90;99.90;;;;;;5053757;28;20120;-73
2020/12/03 00:06:29;;;;;;;52.45;23.92;;;4.90;99.90;;;;;;5053871;28;20045;-71
2020/12/03 00:09:00;;;;;;;51.97;25.08;;;4.90;99.90;;;;;;5053704;28;20499;-71
2020/12/03 00:11:30;;;;;;;49.65;24.80;;;4.90;99.90;;;;;;5053609;28;20045;-71
2020/12/03 00:13:57;;;;;;;47.60;22.42;;;4.90;99.90;;;;;;5053585;28;20091;-72
2020/12/03 00:16:27;;;;;;;50.03;23.58;;;5.00;99.90;;;;;;5053467;28;20049;-71
2020/12/03 00:18:53;;;;;;;49.35;24.13;;;4.90;99.90;;;;;;5053670;28;20045;-71
2020/12/03 00:21:31;;;;;;;49.15;24.73;;;4.90;99.90;;;;;;5053521;28;20048;-71
2020/12/03 00:24:24;;;;;;;49.90;24.50;;;5.00;99.90;;;;;;5052535;28;20623;-71
2020/12/03 00:26:50;;;;;;;51.92;24.23;;;4.90;99.90;;;;;;5052272;28;20390;-71
2020/12/03 00:29:17;;;;;;;54.75;23.05;;;5.00;99.90;;;;;;5053460;28;20049;-71
2020/12/03 00:31:44;;;;;;;50.27;25.00;;;5.00;99.90;;;;;;5053327;28;20053;-71
2020/12/03 00:34:11;;;;;;;51.83;23.92;;;5.00;99.90;;;;;;5053437;28;20040;-71
2020/12/03 00:36:38;;;;;;;48.95;22.65;;;5.00;99.90;;;;;;5053323;28;20132;-71
2020/12/03 00:39:24;;;;;;;56.40;24.27;;;5.00;99.90;;;;;;5052323;28;20106;-71
2020/12/03 00:41:52;;;;;;;58.33;24.35;;;5.00;99.90;;;;;;5053343;28;20091;-71
2020/12/03 00:44:19;;;;;;;57.92;26.30;;;5.00;99.90;;;;;;5053124;28;20496;-71
2020/12/03 00:47:05;;;;;;;53.65;25.45;;;5.00;99.90;;;;;;5051457;28;20068;-71
2020/12/03 00:49:31;;;;;;;54.35;24.50;;;5.00;99.90;;;;;;5053001;28;20048;-73
2020/12/03 00:51:57;;;;;;;56.33;25.25;;;5.00;99.90;;;;;;5052903;28;20055;-73
2020/12/03 00:54:43;;;;;;;53.90;24.45;;;5.00;99.90;;;;;;5051814;28;20103;-72
2020/12/03 00:57:10;;;;;;;55.65;25.55;;;5.00;99.90;;;;;;5052969;28;20045;-71
2020/12/03 00:59:38;;;;;;;51.80;24.25;;;5.10;99.90;;;;;;5053042;28;20412;-71
2020/12/03 01:02:09;;;;;;;53.95;23.83;;;5.00;99.90;;;;;;5052779;28;20063;-71
2020/12/03 01:04:35;;;;;;;51.45;24.83;;;5.10;99.90;;;;;;5052919;28;20103;-71
2020/12/03 01:07:01;;;;;;;58.60;27.67;;;5.00;99.90;;;;;;5052835;28;20040;-71
2020/12/03 01:09:27;;;;;;;55.00;24.70;;;5.10;99.90;;;;;;5052829;28;20056;-71
2020/12/03 01:12:13;;;;;;;47.63;24.65;;;5.00;99.90;;;;;;5051737;28;20485;-71
2020/12/03 01:14:59;;;;;;;55.03;25.38;;;5.10;99.90;;;;;;5051725;28;20107;-71
2020/12/03 01:17:45;;;;;;;58.80;26.80;;;5.00;99.90;;;;;;5051948;28;20057;-71
2020/12/03 01:20:31;;;;;;;56.83;27.55;;;5.00;99.90;;;;;;5052148;28;20041;-72
2020/12/03 01:22:57;;;;;;;56.47;25.55;;;5.10;99.90;;;;;;5052598;28;20056;-70
2020/12/03 01:25:43;;;;;;;53.55;24.98;;;5.00;99.90;;;;;;5051855;28;20488;-71
2020/12/03 01:28:29;;;;;;;60.40;25.40;;;5.00;99.90;;;;;;5051999;28;20053;-71
2020/12/03 01:30:54;;;;;;;61.25;24.67;;;5.00;99.90;;;;;;5052432;28;20481;-71
2020/12/03 01:33:20;;;;;;;52.28;24.42;;;5.10;99.90;;;;;;5052586;28;20049;-71
2020/12/03 01:35:46;;;;;;;57.42;24.05;;;5.00;99.90;;;;;;5052545;28;20041;-71
2020/12/03 01:38:12;;;;;;;55.17;26.23;;;5.10;99.90;;;;;;5052411;28;20071;-71
2020/12/03 01:40:57;;;;;;;54.20;25.75;;;5.10;99.90;;;;;;5051808;28;20099;-72
2020/12/03 01:43:44;;;;;;;58.97;27.40;;;5.10;99.90;;;;;;5037979;28;20475;-72
2020/12/03 01:46:11;;;;;;;55.65;24.88;;;5.10;99.90;;;;;;5052303;28;20045;-71
2020/12/03 01:48:47;;;;;;;57.25;26.45;;;5.10;99.90;;;;;;5052419;28;20116;-72
2020/12/03 01:51:28;;;;;;;54.53;25.30;;;5.10;99.90;;;;;;5052399;28;20118;-71
2020/12/03 01:54:00;;;;;;;56.75;25.88;;;5.10;99.90;;;;;;5052335;28;20079;-72
2020/12/03 01:56:47;;;;;;;59.67;27.85;;;5.20;99.90;;;;;;5052379;28;20052;-71
2020/12/03 01:59:14;;;;;;;57.13;26.15;;;5.10;99.90;;;;;;5054043;28;20049;-72
2020/12/03 02:02:00;;;;;;;54.22;26.35;;;5.20;99.90;;;;;;5055287;28;20049;-71
2020/12/03 02:04:26;;;;;;;57.05;26.48;;;5.20;99.90;;;;;;5056084;28;20094;-71
2020/12/03 02:07:13;;;;;;;57.90;27.70;;;5.20;99.90;;;;;;5055042;28;20499;-71
2020/12/03 02:09:59;;;;;;;54.42;24.92;;;5.20;99.90;;;;;;5055309;28;20045;-72
2020/12/03 02:12:45;;;;;;;57.90;27.20;;;5.20;99.90;;;;;;5055309;28;20143;-71
2020/12/03 02:15:31;;;;;;;58.13;26.80;;;5.20;99.90;;;;;;5055037;28;20060;-72
2020/12/03 02:17:56;;;;;;;57.85;26.52;;;5.20;99.90;;;;;;5056011;28;20464;-71
2020/12/03 02:20:42;;;;;;;58.13;25.13;;;5.20;99.90;;;;;;5055015;28;20091;-71
2020/12/03 02:23:11;;;;;;;59.10;26.38;;;5.30;99.90;;;;;;5055918;28;20073;-71
2020/12/03 02:25:36;;;;;;;54.35;25.10;;;5.30;99.90;;;;;;5055690;28;20045;-71
2020/12/03 02:28:22;;;;;;;63.13;27.90;;;5.30;99.90;;;;;;5054599;28;20492;-70
2020/12/03 02:31:08;;;;;;;60.78;26.70;;;5.30;99.90;;;;;;5054496;28;20045;-71
2020/12/03 02:33:54;;;;;;;66.35;28.00;;;5.30;99.90;;;;;;5040957;28;20459;-72
2020/12/03 02:36:20;;;;;;;53.30;27.00;;;5.30;99.90;;;;;;5054227;28;20041;-73
2020/12/03 02:39:06;;;;;;;53.88;25.73;;;5.30;99.90;;;;;;5054793;28;20091;-71
2020/12/03 02:41:32;;;;;;;54.50;25.83;;;5.40;99.90;;;;;;5055385;28;20077;-71
2020/12/03 02:43:58;;;;;;;57.50;27.83;;;5.30;99.90;;;;;;5055513;28;20045;-73
2020/12/03 02:46:24;;;;;;;61.92;24.20;;;5.40;99.90;;;;;;5055374;28;20128;-71
2020/12/03 02:48:50;;;;;;;62.22;25.95;;;5.40;99.90;;;;;;5055218;28;20080;-71
2020/12/03 02:51:16;;;;;;;62.08;28.98;;;5.40;99.90;;;;;;5055260;28;20095;-71
2020/12/03 02:54:02;;;;;;;62.42;28.50;;;5.40;99.90;;;;;;5054099;28;20453;-71
2020/12/03 02:56:48;;;;;;;61.63;27.80;;;5.40;99.90;;;;;;5054314;28;20053;-71
2020/12/03 02:59:14;;;;;;;59.42;28.20;;;5.40;99.90;;;;;;5054987;28;20049;-71
2020/12/03 03:01:40;;;;;;;61.17;27.23;;;5.40;99.90;;;;;;5055156;28;20067;-71
2020/12/03 03:04:06;;;;;;;64.30;28.52;;;5.40;99.90;;;;;;5055219;28;20095;-71
2020/12/03 03:06:32;;;;;;;67.13;28.08;;;5.40;99.90;;;;;;5055010;28;20487;-71
2020/12/03 03:08:58;;;;;;;61.55;28.75;;;5.40;99.90;;;;;;5054855;28;20056;-71
2020/12/03 03:11:44;;;;;;;58.50;25.80;;;5.40;99.90;;;;;;5052540;28;20088;-71
2020/12/03 03:14:10;;;;;;;64.07;29.92;;;5.40;99.90;;;;;;5054843;28;20075;-71
2020/12/03 03:16:35;;;;;;;63.78;27.50;;;5.40;99.90;;;;;;5054804;28;20120;-71
2020/12/03 03:19:03;;;;;;;55.53;24.20;;;5.40;99.90;;;;;;5054672;28;20076;-71
2020/12/03 03:21:30;;;;;;;65.10;28.70;;;5.40;99.90;;;;;;5054840;28;20049;-73
2020/12/03 03:23:56;;;;;;;68.75;29.27;;;5.50;99.90;;;;;;5054633;28;20048;-71
2020/12/03 03:26:42;;;;;;;67.30;28.30;;;5.50;99.90;;;;;;5053821;28;20088;-71
2020/12/03 03:29:28;;;;;;;68.07;29.55;;;5.50;99.90;;;;;;5054026;28;20139;-71
2020/12/03 03:31:54;;;;;;;62.15;27.55;;;5.50;99.90;;;;;;5054534;28;20496;-72
2020/12/03 03:34:20;;;;;;;62.22;26.77;;;5.50;99.90;;;;;;5054380;28;20076;-71
2020/12/03 03:37:07;;;;;;;65.78;28.13;;;5.50;99.90;;;;;;5053575;28;20049;-71
2020/12/03 03:39:32;;;;;;;59.53;27.75;;;5.50;99.90;;;;;;5053117;28;20037;-71
2020/12/03 03:41:58;;;;;;;66.13;28.75;;;5.50;99.90;;;;;;5054372;28;20441;-71
2020/12/03 03:44:24;;;;;;;67.55;29.95;;;5.50;99.90;;;;;;5054192;28;20049;-71
2020/12/03 03:47:09;;;;;;;62.42;26.83;;;5.50;99.90;;;;;;5053241;28;20045;-72
2020/12/03 03:49:35;;;;;;;55.15;25.10;;;5.50;99.90;;;;;;5054285;28;20068;-72
2020/12/03 03:52:02;;;;;;;60.97;28.13;;;5.50;99.90;;;;;;5054228;28;20240;-72
2020/12/03 03:54:28;;;;;;;63.58;27.77;;;5.50;99.90;;;;;;5053924;28;20079;-72
2020/12/03 03:57:13;;;;;;;61.03;28.55;;;5.50;99.90;;;;;;5053213;28;20160;-71
2020/12/03 04:00:00;;;;;;;57.42;25.08;;;5.50;99.90;;;;;;5053110;28;20060;-72
2020/12/03 04:02:26;;;;;;;61.53;27.80;;;5.50;99.90;;;;;;5053790;28;20515;-72
2020/12/03 04:04:52;;;;;;;62.03;29.00;;;5.50;99.90;;;;;;5053947;28;20057;-72
2020/12/03 04:07:38;;;;;;;75.45;31.23;;;5.50;99.90;;;;;;5052798;28;20045;-72
2020/12/03 04:10:05;;;;;;;59.70;28.38;;;5.50;99.90;;;;;;5053612;28;20045;-71
2020/12/03 04:12:51;;;;;;;60.83;29.25;;;5.60;99.90;;;;;;5053028;28;20400;-72
2020/12/03 04:15:16;;;;;;;64.88;29.45;;;5.60;99.90;;;;;;5053626;28;20045;-72
2020/12/03 04:17:42;;;;;;;69.03;30.55;;;5.50;99.90;;;;;;5053881;28;20049;-72
2020/12/03 04:20:13;;;;;;;62.88;29.60;;;5.50;99.90;;;;;;5053550;28;20037;-72
2020/12/03 04:22:59;;;;;;;64.00;29.63;;;5.50;99.90;;;;;;5052140;28;20587;-72
2020/12/03 04:25:24;;;;;;;61.67;28.25;;;5.50;99.90;;;;;;5053604;28;20136;-73
2020/12/03 04:27:50;;;;;;;57.80;29.05;;;5.50;99.90;;;;;;5053620;28;20044;-72
2020/12/03 04:30:16;;;;;;;57.28;28.00;;;5.60;99.90;;;;;;5053402;28;20049;-72
2020/12/03 04:32:42;;;;;;;72.78;32.42;;;5.60;99.90;;;;;;5053317;28;20048;-71
2020/12/03 04:35:09;;;;;;;65.38;30.02;;;5.60;99.90;;;;;;5053272;28;20068;-71
2020/12/03 04:37:35;;;;;;;76.03;30.77;;;5.60;99.90;;;;;;5053152;28;20051;-71
2020/12/03 04:40:01;;;;;;;74.45;30.23;;;5.60;99.90;;;;;;5053274;28;20544;-71
2020/12/03 04:42:33;;;;;;;74.97;30.33;;;5.50;99.90;;;;;;5053336;28;20053;-71
2020/12/03 04:45:05;;;;;;;68.97;31.30;;;5.50;99.90;;;;;;5053220;28;20072;-71
2020/12/03 04:48:02;;;;;;;71.97;32.00;;;5.50;99.90;;;;;;5053107;28;20052;-71
2020/12/03 04:51:27;;;;;;;66.28;30.48;;;5.50;99.90;;;;;;5051828;28;20045;-71
2020/12/03 04:54:07;;;;;;;79.15;33.88;;;5.50;99.90;;;;;;5052786;28;20158;-71
2020/12/03 04:57:19;;;;;;;64.60;29.70;;;5.50;99.90;;;;;;5052206;28;20068;-72
2020/12/03 05:00:30;;;;;;;79.97;32.63;;;5.50;99.90;;;;;;5052226;28;20440;-70
2020/12/03 05:03:33;;;;;;;80.35;32.67;;;5.40;99.90;;;;;;5052963;28;20045;-70
2020/12/03 05:06:25;;;;;;;64.57;29.27;;;5.50;99.90;;;;;;5052914;28;20128;-71
2020/12/03 05:09:01;;;;;;;81.28;32.67;;;5.40;99.90;;;;;;5052679;28;20098;-70
2020/12/03 05:11:36;;;;;;;73.80;31.35;;;5.40;99.90;;;;;;5052725;28;20497;-70
2020/12/03 05:14:26;;;;;;;79.40;32.10;;;5.40;99.90;;;;;;5052758;28;20049;-70
2020/12/03 05:17:34;;;;;;;80.47;33.60;;;5.40;99.90;;;;;;5051853;28;20144;-70
2020/12/03 05:20:11;;;;;;;75.50;31.23;;;5.40;99.90;;;;;;5052722;28;20069;-71
2020/12/03 05:22:38;;;;;;;83.50;34.30;;;5.40;99.90;;;;;;5052811;28;20049;-70
2020/12/03 05:25:13;;;;;;;87.13;34.92;;;5.40;99.90;;;;;;5052743;28;20056;-70
2020/12/03 05:27:39;;;;;;;84.45;34.88;;;5.40;99.90;;;;;;5052566;28;20505;-70
2020/12/03 05:30:07;;;;;;;75.18;32.05;;;5.30;99.90;;;;;;5052596;28;20493;-70
2020/12/03 05:32:53;;;;;;;89.97;35.83;;;5.40;99.90;;;;;;5051591;28;20136;-70
2020/12/03 05:35:19;;;;;;;80.70;32.30;;;5.40;99.90;;;;;;5055005;28;20080;-70
2020/12/03 05:38:14;;;;;;;83.65;35.78;;;5.40;99.90;;;;;;5055690;28;20053;-71
2020/12/03 05:41:05;;;;;;;56.53;26.60;;;5.40;99.90;;;;;;5055860;28;20041;-71
2020/12/03 05:43:51;;;;;;;79.47;32.85;;;5.40;99.90;;;;;;5055747;28;20088;-71
2020/12/03 05:46:21;;;;;;;74.90;32.97;;;5.40;99.90;;;;;;5056430;28;20102;-71
2020/12/03 05:48:59;;;;;;;87.90;32.63;;;5.40;99.90;;;;;;5056892;28;20060;-71
2020/12/03 05:51:29;;;;;;;77.78;33.28;;;5.40;99.90;;;;;;5056379;28;20052;-71
2020/12/03 05:54:15;;;;;;;90.07;37.17;;;5.40;99.90;;;;;;5055257;28;20145;-71
2020/12/03 05:56:50;;;;;;;87.65;34.60;;;5.40;99.90;;;;;;5056287;28;20116;-71
2020/12/03 05:59:36;;;;;;;69.18;31.77;;;5.40;99.90;;;;;;5055407;28;20129;-71
2020/12/03 06:02:30;;;;;;;70.90;30.80;;;5.40;99.90;;;;;;5056091;28;20133;-71
2020/12/03 06:05:17;;;;;;;65.55;28.67;;;5.40;99.90;;;;;;5052024;28;20061;-71
2020/12/03 06:07:52;;;;;;;79.30;34.08;;;5.40;99.90;;;;;;5056069;28;20047;-71
2020/12/03 06:11:12;;;;;;;65.18;28.80;;;5.40;99.90;;;;;;5055143;28;20531;-71
2020/12/03 06:13:58;;;;;;;73.90;33.90;;;5.40;99.90;;;;;;5039869;28;20057;-71
2020/12/03 06:17:32;;;;;;;72.75;33.42;;;5.40;99.90;;;;;;5054986;28;20436;-71
2020/12/03 06:20:21;;;;;;;77.75;35.05;;;5.40;99.90;;;;;;5014390;28;20061;-71
2020/12/03 06:23:16;;;;;;;74.80;35.08;;;5.40;99.90;;;;;;5014225;28;20045;-71
2020/12/03 06:25:51;;;;;;;81.88;34.85;;;5.40;99.90;;;;;;5014099;28;20160;-71
2020/12/03 06:28:35;;;;;;;78.25;36.40;;;5.40;99.90;;;;;;5013906;28;20053;-71
2020/12/03 06:31:19;;;;;;;68.72;32.60;;;5.40;99.90;;;;;;5013764;28;20086;-71
2020/12/03 06:34:22;;;;;;;74.55;35.85;;;5.40;99.90;;;;;;5013914;28;20072;-71
2020/12/03 06:36:59;;;;;;;70.40;33.97;;;5.40;99.90;;;;;;5013494;28;20072;-71
2020/12/03 06:39:41;;;;;;;76.75;36.45;;;5.40;99.90;;;;;;5013731;28;20057;-71
2020/12/03 06:42:45;;;;;;;82.05;38.25;;;5.40;99.90;;;;;;5013972;28;20062;-71
2020/12/03 06:45:29;;;;;;;70.93;33.92;;;5.40;99.90;;;;;;5013446;28;20080;-71
2020/12/03 06:48:19;;;;;;;77.18;37.53;;;5.40;99.90;;;;;;5013630;28;20137;-71
2020/12/03 06:51:02;;;;;;;81.85;38.47;;;5.40;99.90;;;;;;5034629;28;20139;-72
2020/12/03 06:54:06;;;;;;;74.72;35.55;;;5.40;99.90;;;;;;5054267;28;20481;-72
2020/12/03 06:56:41;;;;;;;81.40;37.72;;;5.40;99.90;;;;;;5055193;28;20041;-71
2020/12/03 06:59:21;;;;;;;79.03;37.22;;;5.30;99.90;;;;;;5055254;28;20095;-71
2020/12/03 07:02:15;;;;;;;90.05;41.75;;;5.40;99.90;;;;;;5054820;28;20051;-71
2020/12/03 07:05:01;;;;;;;65.68;34.58;;;5.40;99.90;;;;;;5055052;28;20041;-71
2020/12/03 07:07:36;;;;;;;94.70;40.33;;;5.30;99.90;;;;;;5054842;28;20055;-71
2020/12/03 07:10:14;;;;;;;86.38;40.80;;;5.30;99.90;;;;;;5054098;28;20045;-72
2020/12/03 07:13:21;;;;;;;77.63;39.83;;;5.30;99.90;;;;;;5049823;28;20044;-71
2020/12/03 07:16:02;;;;;;;80.72;38.72;;;5.30;99.90;;;;;;5054516;28;20056;-74
2020/12/03 07:18:56;;;;;;;78.28;37.83;;;5.30;99.90;;;;;;5052855;28;20489;-72
2020/12/03 07:22:31;;;;;;;65.63;34.70;;;5.30;99.90;;;;;;5052340;28;20076;-73
2020/12/03 07:25:17;;;;;;;79.32;39.53;;;5.30;99.90;;;;;;5048715;28;20060;-72
2020/12/03 07:27:57;;;;;;;73.05;37.60;;;5.30;99.90;;;;;;5050860;28;20107;-72
2020/12/03 07:30:39;;;;;;;72.13;39.65;;;5.30;99.90;;;;;;5058667;28;20052;-73
2020/12/03 07:33:23;;;;;;;60.20;33.75;;;5.30;99.90;;;;;;5074368;28;20354;-72
2020/12/03 07:36:04;;;;;;;66.63;36.35;;;5.30;99.90;;;;;;5059104;28;20094;-72
2020/12/03 07:38:41;;;;;;;67.75;37.17;;;5.30;99.90;;;;;;5070357;28;20138;-72
2020/12/03 07:41:14;;;;;;;71.18;37.42;;;5.30;99.90;;;;;;5072283;28;20048;-73
2020/12/03 07:43:39;;;;;;;70.10;38.60;;;5.30;99.90;;;;;;5073025;28;20056;-72
2020/12/03 07:46:28;;;;;;;65.00;37.85;;;5.40;99.90;;;;;;5065014;28;20408;-72
2020/12/03 07:49:42;;;;;;;70.20;35.67;;;5.30;99.90;;;;;;5031626;28;20136;-73
2020/12/03 07:52:38;;;;;;;72.45;39.85;;;5.40;99.90;;;;;;5040525;28;20139;-72
2020/12/03 07:55:22;;;;;;;69.55;37.45;;;5.20;99.90;;;;;;5053343;28;20059;-73
2020/12/03 07:57:53;;;;;;;74.00;39.70;;;5.40;99.90;;;;;;5053549;28;20090;-74
2020/12/03 08:00:44;;;;;;;74.15;40.72;;;5.40;99.90;;;;;;5053823;28;20120;-73
2020/12/03 08:03:36;;;;;;;77.50;41.33;;;5.40;99.90;;;;;;5053771;28;20036;-71
2020/12/03 08:06:30;;;;;;;74.97;37.85;;;5.40;99.90;;;;;;5053078;28;20055;-72
2020/12/03 08:09:22;;;;;;;89.55;43.60;;;5.30;99.90;;;;;;5019095;28;20405;-72
2020/12/03 08:12:12;;;;;;;65.85;36.80;;;5.40;99.90;;;;;;5034089;28;20053;-72
2020/12/03 08:15:00;;;;;;;80.50;42.88;;;5.40;99.90;;;;;;5060312;28;20501;-72
2020/12/03 08:17:26;;;;;;;86.20;43.10;;;5.40;99.90;;;;;;5033805;28;20473;-72
2020/12/03 08:20:18;;;;;;;84.15;42.35;;;5.40;99.90;;;;;;5060700;28;20053;-72
2020/12/03 08:22:47;;;;;;;74.13;39.75;;;5.30;99.90;;;;;;5033837;28;20507;-73
2020/12/03 08:25:33;;;;;;;;;;;5.30;99.90;;;;;;5032905;28;20056;-71
2020/12/03 08:28:23;;;;;;;74.63;40.05;;;5.40;99.90;;;;;;5047863;28;20402;-69
2020/12/03 08:30:52;;;;;;;85.55;43.85;;;5.30;99.90;;;;;;5052097;28;20052;-72
2020/12/03 08:33:35;;;;;;;79.03;42.78;;;5.30;99.90;;;;;;5053204;28;20059;-73
2020/12/03 08:36:23;;;;;;;82.68;44.28;;;5.30;99.90;;;;;;5046216;28;20098;-71
2020/12/03 08:38:55;;;;;;;69.70;37.88;;;5.30;99.90;;;;;;5033592;28;20068;-64
2020/12/03 08:41:25;;;;;;;79.90;41.90;;;5.40;99.90;;;;;;5045791;28;20045;-65
2020/12/03 08:43:54;;;;;;;81.45;41.45;;;5.40;99.90;;;;;;5052463;28;20045;-64
2020/12/03 08:46:40;;;;;;;80.07;41.92;;;5.40;99.90;;;;;;5065310;28;20052;-68
2020/12/03 08:49:11;;;;;;;75.32;41.30;;;5.40;99.90;;;;;;5047841;28;20037;-68
2020/12/03 08:51:39;;;;;;;79.70;40.50;;;5.40;99.90;;;;;;5047600;28;20068;-66
2020/12/03 08:54:04;;;;;;;;;;;5.40;99.90;;;;;;5054762;28;20049;-68
2020/12/03 08:56:38;;;;;;;68.18;36.83;;;5.50;99.90;;;;;;5033090;28;19921;-67
2020/12/03 08:59:44;;;;;;;68.85;36.33;;;5.50;99.90;;;;;;5059268;28;20045;-64
2020/12/03 09:02:11;;;;;;;74.03;37.28;;;5.40;99.90;;;;;;5052237;28;20044;-65
2020/12/03 09:04:42;;;;;;;81.68;40.17;;;5.40;99.90;;;;;;5048083;28;20500;-64
2020/12/03 09:07:14;;;;;;;77.03;39.22;;;5.50;99.90;;;;;;5073876;28;20044;-68
2020/12/03 09:09:44;;;;;;;71.20;40.17;;;5.50;99.90;;;;;;5054870;28;20072;-68
2020/12/03 09:12:12;;;;;;;69.45;36.70;;;5.50;99.90;;;;;;5047770;28;20046;-68
2020/12/03 09:14:42;;;;;;;75.05;35.90;;;5.50;99.90;;;;;;5049591;28;20595;-68
2020/12/03 09:17:09;;;;;;;77.85;39.97;;;5.50;99.90;;;;;;5049085;28;20049;-68
2020/12/03 09:19:35;;;;;;;71.82;37.38;;;5.50;99.90;;;;;;5041629;28;20059;-65
2020/12/03 09:22:02;;;;;;;73.55;37.03;;;5.50;99.90;;;;;;5049181;28;20120;-70
2020/12/03 09:24:49;;;;;;;65.07;33.45;;;5.60;99.90;;;;;;5052412;28;20143;-69
2020/12/03 09:27:16;;;;;;;66.05;35.88;;;5.60;99.90;;;;;;5061331;28;20040;-69
2020/12/03 09:29:52;;;;;;;70.18;36.65;;;5.60;99.90;;;;;;5067484;28;20078;-67
2020/12/03 09:32:22;;;;;;;59.80;32.30;;;5.60;99.90;;;;;;5064168;28;20503;-68
2020/12/03 09:34:52;;;;;;;64.50;34.25;;;5.60;99.90;;;;;;5060375;28;20397;-67
2020/12/03 09:37:18;;;;;;;59.80;29.08;;;5.60;99.90;;;;;;5051757;28;20053;-67
2020/12/03 09:40:07;;;;;;;58.60;31.95;;;5.70;99.90;;;;;;5055164;28;20067;-65
2020/12/03 09:42:41;;;;;;;61.38;33.15;;;5.70;99.90;;;;;;5056879;28;20112;-69
2020/12/03 09:45:34;;;;;;;64.28;33.65;;;5.70;99.90;;;;;;5051032;28;20500;-69
2020/12/03 09:48:04;;;;;;;67.03;32.33;;;5.70;99.90;;;;;;5052644;28;20045;-68
2020/12/03 09:50:30;;;;;;;69.50;34.75;;;5.70;99.90;;;;;;5053509;28;20056;-65
2020/12/03 09:52:56;;;;;;;75.55;32.33;;;5.70;99.90;;;;;;5060001;28;20044;-66
2020/12/03 09:55:43;;;;;;;66.13;34.05;;;5.70;99.90;;;;;;5051325;28;20049;-65
2020/12/03 09:58:08;;;;;;;58.10;31.80;;;5.70;99.90;;;;;;5041888;28;20373;-63
2020/12/03 10:00:59;;;;;;;57.72;30.48;;;5.70;99.90;;;;;;5059460;28;20050;-64
2020/12/03 10:04:31;;;;;;;60.42;33.25;;;5.70;99.90;;;;;;5031715;28;20061;-64
2020/12/03 10:07:14;;;;;;;59.20;31.27;;;5.70;99.90;;;;;;5035775;28;20087;-64
2020/12/03 10:10:06;;;;;;;58.05;31.30;;;5.80;99.90;;;;;;5066444;28;20415;-65
2020/12/03 10:12:52;;;;;;;56.00;30.08;;;5.80;99.90;;;;;;5049581;28;20619;-66
2020/12/03 10:15:53;;;;;;;63.10;30.75;;;5.80;99.90;;;;;;5059787;28;20064;-64
2020/12/03 10:18:38;;;;;;;59.50;29.77;;;5.80;99.90;;;;;;5039613;28;20048;-70
2020/12/03 10:21:05;;;;;;;58.33;29.83;;;5.80;99.90;;;;;;5055177;28;20052;-69
2020/12/03 10:23:44;;;;;;;64.97;30.08;;;5.80;99.90;;;;;;5047141;28;20065;-71
2020/12/03 10:26:23;;;;;;;52.30;29.17;;;5.90;99.90;;;;;;5035227;28;20117;-71
2020/12/03 10:29:14;;;;;;;57.33;29.48;;;5.90;99.90;;;;;;5051619;28;20144;-66
2020/12/03 10:31:42;;;;;;;58.20;31.30;;;5.80;99.90;;;;;;5053255;28;20041;-67
2020/12/03 10:34:29;;;;;;;53.53;31.10;;;5.90;99.90;;;;;;5081027;28;20124;-66
2020/12/03 10:37:24;;;;;;;56.67;29.77;;;5.80;99.90;;;;;;5051983;28;20405;-67
2020/12/03 10:39:53;;;;;;;46.92;27.00;;;5.90;99.90;;;;;;5087441;28;20519;-69
2020/12/03 10:42:23;;;;;;;60.55;30.00;;;5.80;99.90;;;;;;5055335;28;20111;-74
2020/12/03 10:45:15;;;;;;;47.70;26.42;;;5.80;99.90;;;;;;5046354;28;20083;-70
2020/12/03 10:47:55;;;;;;;50.30;27.60;;;5.80;99.90;;;;;;5047419;28;20079;-69
2020/12/03 10:50:47;;;;;;;52.03;27.80;;;5.80;99.90;;;;;;5034767;28;20075;-71
2020/12/03 10:53:17;;;;;;;51.83;26.85;;;5.80;99.90;;;;;;5038908;28;20045;-70
2020/12/03 10:56:08;;;;;;;54.92;27.40;;;5.80;99.90;;;;;;5038833;28;20130;-71
2020/12/03 10:59:19;;;;;;;51.90;26.15;;;5.80;99.90;;;;;;5074129;28;20235;-65
2020/12/03 11:01:50;;;;;;;48.50;26.75;;;5.80;99.90;;;;;;5035062;28;20041;-65
2020/12/03 11:04:38;;;;;;;40.28;23.55;;;5.80;99.90;;;;;;5067822;28;20045;-65
2020/12/03 11:07:08;;;;;;;;;;;5.80;99.90;;;;;;5055282;28;20044;-69
2020/12/03 11:09:33;;;;;;;;;;;5.80;99.90;;;;;;5058730;28;20398;-66
2020/12/03 11:12:00;;;;;;;44.00;23.85;;;5.80;99.90;;;;;;5063605;28;19928;-68
2020/12/03 11:14:31;;;;;;;45.08;23.85;;;5.80;99.90;;;;;;5060202;28;20147;-64
2020/12/03 11:17:22;;;;;;;46.78;22.80;;;5.80;99.90;;;;;;5040925;28;20128;-67
2020/12/03 11:20:09;;;;;;;37.95;20.95;;;5.80;99.90;;;;;;5048684;28;20049;-65
2020/12/03 11:22:41;;;;;;;38.72;21.83;;;5.80;99.90;;;;;;5065922;28;20133;-71
2020/12/03 11:25:10;;;;;;;39.92;21.42;;;5.80;99.90;;;;;;5051240;28;20056;-70
2020/12/03 11:28:00;;;;;;;37.25;20.92;;;5.90;99.90;;;;;;5081318;28;20072;-67
2020/12/03 11:31:03;;;;;;;33.85;19.35;;;5.80;99.90;;;;;;5078987;28;20059;-66
2020/12/03 11:33:31;;;;;;;34.35;19.45;;;5.90;99.90;;;;;;5036399;28;20111;-65
2020/12/03 11:36:10;;;;;;;36.65;19.75;;;5.90;99.90;;;;;;5045721;28;20500;-69
2020/12/03 11:38:57;;;;;;;33.87;19.30;;;5.90;99.90;;;;;;5052968;28;20075;-68
2020/12/03 11:49:29;;;;;;;30.20;17.23;;;6.00;99.90;;;;;;5052576;28;20048;-71
2020/12/03 11:51:55;;;;;;;29.38;16.27;;;6.00;99.90;;;;;;5047388;28;20045;-68
2020/12/03 11:54:28;;;;;;;29.45;16.52;;;5.90;99.90;;;;;;5079255;28;20061;-70
2020/12/03 11:57:15;;;;;;;31.52;18.77;;;5.90;99.90;;;;;;5050194;28;20052;-70
2020/12/03 12:00:01;;;;;;;30.63;17.38;;;5.90;99.90;;;;;;5039814;28;20041;-63
2020/12/03 12:02:29;;;;;;;33.80;18.23;;;5.90;99.90;;;;;;5040236;28;20045;-66
2020/12/03 12:05:04;;;;;;;;;;;5.80;99.90;;;;;;5034061;28;20049;-65
2020/12/03 12:08:16;;;;;;;35.28;20.90;;;5.80;99.90;;;;;;5034302;28;19921;-66
2020/12/03 12:10:30;;;;;;;36.97;18.95;;;5.80;99.90;;;;;;5046916;28;20059;-66
2020/12/03 12:13:16;;;;;;;36.78;18.95;;;5.90;99.90;;;;;;5064735;28;20033;-67
2020/12/03 12:15:42;;;;;;;38.08;21.02;;;5.90;99.90;;;;;;5063215;28;20055;-67
2020/12/03 12:18:09;;;;;;;36.97;19.75;;;5.80;99.90;;;;;;5062772;28;20048;-67
2020/12/03 12:20:35;;;;;;;33.80;19.35;;;5.80;99.90;;;;;;5075919;28;20048;-69
2020/12/03 12:23:01;;;;;;;34.17;20.33;;;5.90;99.90;;;;;;5070946;28;20086;-73
2020/12/03 12:25:27;;;;;;;34.47;19.52;;;5.90;99.90;;;;;;5072812;28;20049;-70
2020/12/03 12:27:53;;;;;;;31.70;18.60;;;5.90;99.90;;;;;;5071496;28;20048;-71
2020/12/03 12:30:19;;;;;;;40.03;19.45;;;5.90;99.90;;;;;;5069017;28;20123;-70
2020/12/03 12:32:45;;;;;;;39.33;20.00;;;5.90;99.90;;;;;;5073108;28;20044;-71
2020/12/03 12:35:30;;;;;;;30.95;18.02;;;5.90;99.90;;;;;;5071359;28;20049;-72
2020/12/03 12:37:56;;;;;;;35.47;18.05;;;5.90;99.90;;;;;;5072683;28;20453;-71
2020/12/03 12:40:42;;;;;;;29.80;17.48;;;5.90;99.90;;;;;;5066718;28;20052;-67
2020/12/03 12:43:08;;;;;;;32.65;17.42;;;5.90;99.90;;;;;;5070979;28;20049;-70
2020/12/03 12:45:33;;;;;;;27.98;15.32;;;5.90;99.90;;;;;;5068259;28;20074;-71
2020/12/03 12:48:20;;;;;;;26.08;15.35;;;5.90;99.90;;;;;;5070700;28;20127;-69
2020/12/03 12:50:46;;;;;;;29.87;17.03;;;5.90;99.90;;;;;;5066801;28;20052;-65
2020/12/03 12:53:12;;;;;;;27.05;17.05;;;5.90;99.90;;;;;;5057549;28;20307;-71
2020/12/03 12:55:58;;;;;;;20.60;13.85;;;5.90;99.90;;;;;;5083103;28;20041;-73
2020/12/03 12:58:24;;;;;;;22.73;14.50;;;5.90;99.90;;;;;;5071700;28;20047;-70
2020/12/03 13:00:49;;;;;;;20.42;14.25;;;5.90;99.90;;;;;;5071643;28;20044;-72
2020/12/03 13:03:35;;;;;;;19.95;12.48;;;5.90;99.90;;;;;;5064951;28;20055;-69
2020/12/03 13:06:01;;;;;;;16.50;12.07;;;5.90;99.90;;;;;;5071144;28;20040;-73
2020/12/03 13:08:27;;;;;;;22.80;14.18;;;5.90;99.90;;;;;;5075460;28;20100;-72
2020/12/03 13:10:53;;;;;;;17.98;12.05;;;5.90;99.90;;;;;;5064425;28;20047;-67
2020/12/03 13:13:27;;;;;;;23.80;13.32;;;5.90;99.90;;;;;;5071479;28;20049;-73
2020/12/03 13:15:53;;;;;;;16.58;11.40;;;5.90;99.90;;;;;;5066899;28;20044;-69
2020/12/03 13:18:18;;;;;;;18.63;11.27;;;5.90;99.90;;;;;;5071441;28;20040;-70
2020/12/03 13:20:47;;;;;;;19.40;12.20;;;5.90;99.90;;;;;;5072421;28;20492;-68
2020/12/03 13:23:13;;;;;;;15.50;10.48;;;5.90;99.90;;;;;;5060734;28;20060;-67
2020/12/03 13:25:58;;;;;;;15.57;11.02;;;5.80;99.90;;;;;;5055070;28;20051;-67
2020/12/03 13:28:24;;;;;;;21.55;11.85;;;5.90;99.90;;;;;;5065694;28;20045;-69
2020/12/03 13:31:10;;;;;;;20.15;13.02;;;5.80;99.90;;;;;;5055525;28;20059;-67
2020/12/03 13:33:36;;;;;;;17.38;12.20;;;5.80;99.90;;;;;;5061525;28;20064;-67
2020/12/03 13:36:22;;;;;;;20.00;12.65;;;5.80;99.90;;;;;;5056964;28;20041;-67
2020/12/03 13:38:48;;;;;;;18.60;12.82;;;5.70;99.90;;;;;;5065757;28;20552;-68
2020/12/03 13:41:34;;;;;;;20.50;12.77;;;5.70;99.90;;;;;;5062126;28;20056;-64